createdAt,value
2022-10-05T00:00:20.095Z,30.018
2022-10-05T00:05:20.223Z,30.018
2022-10-05T00:10:20.053Z,30.018
2022-10-05T00:15:20.073Z,30.017
2022-10-05T00:20:20.238Z,30.017
2022-10-05T00:25:20.161Z,30.017
2022-10-05T00:30:20.136Z,30.013
2022-10-05T00:35:20.177Z,30.013
2022-10-05T00:40:20.157Z,30.013
2022-10-05T00:45:17.082Z,30.015
2022-10-05T00:50:17.021Z,30.015
2022-10-05T00:55:20.181Z,30.015
2022-10-05T01:00:20.144Z,30.010
2022-10-05T01:05:20.113Z,30.010
2022-10-05T01:10:20.158Z,30.010
2022-10-05T01:15:20.235Z,30.014
2022-10-05T01:20:20.191Z,30.014
2022-10-05T01:25:20.142Z,30.014
2022-10-05T01:30:20.219Z,30.007
2022-10-05T01:35:20.202Z,30.007
2022-10-05T01:40:17.101Z,30.007
2022-10-05T01:45:17.063Z,30.003
2022-10-05T01:50:20.244Z,30.003
2022-10-05T01:55:20.217Z,30.003
2022-10-05T02:00:20.205Z,30.003
2022-10-05T02:05:20.388Z,30.003
2022-10-05T02:10:20.288Z,30.003
2022-10-05T02:15:20.282Z,29.994
2022-10-05T02:20:20.312Z,29.994
2022-10-05T02:25:20.244Z,29.994
2022-10-05T02:30:20.359Z,29.991
2022-10-05T02:35:17.184Z,29.991
2022-10-05T02:40:20.420Z,29.991
2022-10-05T02:45:20.448Z,29.989
2022-10-05T02:50:20.271Z,29.989
2022-10-05T02:55:20.280Z,29.989
2022-10-05T03:00:20.547Z,29.994
2022-10-05T03:05:20.353Z,29.994
2022-10-05T03:10:20.286Z,29.994
2022-10-05T03:15:20.425Z,29.987
2022-10-05T03:20:20.475Z,29.987
2022-10-05T03:25:17.220Z,29.987
2022-10-05T03:30:17.404Z,30.000
2022-10-05T03:35:20.530Z,30.000
2022-10-05T03:40:20.394Z,30.000
2022-10-05T03:45:20.369Z,29.986
2022-10-05T03:50:20.447Z,29.986
2022-10-05T03:55:20.364Z,29.986
2022-10-05T04:00:19.765Z,29.984
2022-10-05T04:05:19.574Z,29.984
2022-10-05T04:10:19.719Z,29.984
2022-10-05T04:15:19.810Z,29.977
2022-10-05T04:20:19.767Z,29.977
2022-10-05T04:25:19.707Z,29.977
2022-10-05T04:30:19.701Z,29.982
2022-10-05T04:35:16.607Z,29.982
2022-10-05T04:40:16.854Z,29.982
2022-10-05T04:45:19.834Z,29.971
2022-10-05T04:50:19.730Z,29.971
2022-10-05T04:55:19.711Z,29.971
2022-10-05T05:00:19.745Z,29.969
2022-10-05T05:05:19.791Z,29.969
2022-10-05T05:10:19.609Z,29.969
2022-10-05T05:15:19.820Z,29.970
2022-10-05T05:20:19.746Z,29.970
2022-10-05T05:25:16.666Z,29.970
2022-10-05T05:30:16.634Z,29.971
2022-10-05T05:35:20.370Z,29.971
2022-10-05T05:40:19.804Z,29.971
2022-10-05T05:45:19.787Z,29.970
2022-10-05T05:50:19.797Z,29.970
2022-10-05T05:55:19.711Z,29.970
2022-10-05T06:00:19.976Z,29.963
2022-10-05T06:05:19.866Z,29.963
2022-10-05T06:10:19.949Z,29.963
2022-10-05T06:15:19.801Z,29.957
2022-10-05T06:20:16.720Z,29.957
2022-10-05T06:25:16.871Z,29.957
2022-10-05T06:30:19.932Z,29.955
2022-10-05T06:35:19.969Z,29.955
2022-10-05T06:40:19.928Z,29.955
2022-10-05T06:45:19.871Z,29.955
2022-10-05T06:50:19.939Z,29.955
2022-10-05T06:55:19.927Z,29.955
2022-10-05T07:00:19.945Z,29.950
2022-10-05T07:05:19.919Z,29.950
2022-10-05T07:10:19.969Z,29.950
2022-10-05T07:15:16.966Z,29.948
2022-10-05T07:20:20.192Z,29.948
2022-10-05T07:25:19.890Z,29.948
2022-10-05T07:30:20.041Z,29.939
2022-10-05T07:35:20.039Z,29.939
2022-10-05T07:40:20.115Z,29.939
2022-10-05T07:45:20.057Z,29.937
2022-10-05T07:50:19.909Z,29.937
2022-10-05T07:55:19.966Z,29.937
2022-10-05T08:00:20.060Z,29.931
2022-10-05T08:05:16.890Z,29.931
2022-10-05T08:10:16.946Z,29.931
2022-10-05T08:15:20.096Z,29.927
2022-10-05T08:20:20.051Z,29.927
2022-10-05T08:25:20.102Z,29.927
2022-10-05T08:30:20.091Z,29.927
2022-10-05T08:35:20.104Z,29.927
2022-10-05T08:40:20.072Z,29.927
2022-10-05T08:45:19.979Z,29.927
2022-10-05T08:50:20.355Z,29.927
2022-10-05T08:55:20.127Z,29.927
2022-10-05T09:00:16.969Z,29.930
2022-10-05T09:05:16.989Z,29.930
2022-10-05T09:10:20.224Z,29.930
2022-10-05T09:15:25.844Z,29.929
2022-10-05T09:20:20.111Z,29.929
2022-10-05T09:25:20.239Z,29.929
2022-10-05T09:30:20.173Z,29.930
2022-10-05T09:35:20.218Z,29.930
2022-10-05T09:40:20.268Z,29.930
2022-10-05T09:45:21.471Z,29.930
2022-10-05T09:50:20.228Z,29.930
2022-10-05T09:55:17.107Z,29.930
2022-10-05T10:00:20.138Z,29.923
2022-10-05T10:05:20.296Z,29.923
2022-10-05T10:10:20.273Z,29.923
2022-10-05T10:15:20.079Z,29.922
2022-10-05T10:20:20.366Z,29.922
2022-10-05T10:25:20.203Z,29.922
2022-10-05T10:30:20.241Z,29.922
2022-10-05T10:35:20.431Z,29.922
2022-10-05T10:40:20.291Z,29.922
2022-10-05T10:45:17.150Z,29.919
2022-10-05T10:50:17.240Z,29.919
2022-10-05T10:55:20.381Z,29.919
2022-10-05T11:00:20.309Z,29.913
2022-10-05T11:05:20.252Z,29.913
2022-10-05T11:10:20.275Z,29.913
2022-10-05T11:15:20.318Z,29.916
2022-10-05T11:20:20.369Z,29.916
2022-10-05T11:25:20.275Z,29.916
2022-10-05T11:30:20.333Z,29.923
2022-10-05T11:35:20.327Z,29.923
2022-10-05T11:40:17.284Z,29.923
2022-10-05T11:45:17.650Z,29.924
2022-10-05T11:50:20.417Z,29.924
2022-10-05T11:55:20.340Z,29.924
2022-10-05T12:00:20.433Z,29.935
2022-10-05T12:05:20.479Z,29.935
2022-10-05T12:10:20.631Z,29.935
2022-10-05T12:15:20.708Z,29.939
2022-10-05T12:20:20.457Z,29.939
2022-10-05T12:25:20.265Z,29.939
2022-10-05T12:30:17.329Z,29.941
2022-10-05T12:35:36.234Z,29.941
2022-10-05T12:40:20.490Z,29.941
2022-10-05T12:45:20.432Z,29.944
2022-10-05T12:50:20.481Z,29.944
2022-10-05T12:55:20.530Z,29.944
2022-10-05T13:00:23.172Z,29.948
2022-10-05T13:05:20.494Z,29.948
2022-10-05T13:10:20.492Z,29.948
2022-10-05T13:15:20.581Z,29.942
2022-10-05T13:20:21.491Z,29.942
2022-10-05T13:25:17.371Z,29.942
2022-10-05T13:30:17.499Z,29.939
2022-10-05T13:35:20.571Z,29.939
2022-10-05T13:40:20.540Z,29.939
2022-10-05T13:45:20.592Z,29.937
2022-10-05T13:50:20.583Z,29.937
2022-10-05T13:55:20.696Z,29.937
2022-10-05T14:00:24.164Z,29.940
2022-10-05T14:05:20.650Z,29.940
2022-10-05T14:10:20.550Z,29.940
2022-10-05T14:15:18.618Z,29.937
2022-10-05T14:20:18.625Z,29.937
2022-10-05T14:25:18.747Z,29.937
2022-10-05T14:30:18.616Z,29.934
2022-10-05T14:35:18.559Z,29.934
2022-10-05T14:40:18.698Z,29.934
2022-10-05T14:45:18.667Z,29.926
2022-10-05T14:50:18.595Z,29.926
2022-10-05T14:55:15.580Z,29.926
2022-10-05T15:00:15.749Z,29.922
2022-10-05T15:05:18.653Z,29.922
2022-10-05T15:10:18.669Z,29.922
2022-10-05T15:15:18.628Z,29.922
2022-10-05T15:20:18.622Z,29.922
2022-10-05T15:25:18.707Z,29.922
2022-10-05T15:30:18.766Z,29.921
2022-10-05T15:35:18.704Z,29.921
2022-10-05T15:40:18.718Z,29.921
2022-10-05T15:45:18.755Z,29.913
2022-10-05T15:50:15.618Z,29.913
2022-10-05T15:55:15.563Z,29.913
2022-10-05T16:00:18.686Z,29.907
2022-10-05T16:05:18.945Z,29.907
2022-10-05T16:10:18.746Z,29.907
2022-10-05T16:15:18.696Z,29.912
2022-10-05T16:20:18.709Z,29.912
2022-10-05T16:25:18.807Z,29.912
2022-10-05T16:30:18.794Z,29.913
2022-10-05T16:35:18.769Z,29.913
2022-10-05T16:40:18.807Z,29.913
2022-10-05T16:45:15.696Z,29.910
2022-10-05T16:50:18.804Z,29.910
2022-10-05T16:55:18.833Z,29.910
2022-10-05T17:00:18.806Z,29.907
2022-10-05T17:05:18.802Z,29.907
2022-10-05T17:10:18.865Z,29.907
2022-10-05T17:15:18.967Z,29.905
2022-10-05T17:20:18.878Z,29.905
2022-10-05T17:25:18.792Z,29.905
2022-10-05T17:30:18.857Z,29.902
2022-10-05T17:35:18.463Z,29.902
2022-10-05T17:40:15.729Z,29.902
2022-10-05T17:45:18.872Z,29.890
2022-10-05T17:50:18.898Z,29.890
2022-10-05T17:55:18.909Z,29.890
2022-10-05T18:00:18.868Z,29.886
2022-10-05T18:05:18.937Z,29.886
2022-10-05T18:10:18.937Z,29.886
2022-10-05T18:15:18.871Z,29.887
2022-10-05T18:20:18.937Z,29.887
2022-10-05T18:25:19.028Z,29.887
2022-10-05T18:30:15.811Z,29.877
2022-10-05T18:35:15.699Z,29.877
2022-10-05T18:40:19.032Z,29.877
2022-10-05T18:45:18.910Z,29.875
2022-10-05T18:50:18.924Z,29.875
2022-10-05T18:55:18.919Z,29.875
2022-10-05T19:00:18.970Z,29.875
2022-10-05T19:05:45.936Z,29.875
2022-10-05T19:10:18.960Z,29.875
2022-10-05T19:15:18.918Z,29.872
2022-10-05T19:20:16.013Z,29.872
2022-10-05T19:25:15.857Z,29.872
2022-10-05T19:30:18.982Z,29.874
2022-10-05T19:35:19.102Z,29.874
2022-10-05T19:40:19.021Z,29.874
2022-10-05T19:45:19.056Z,29.875
2022-10-05T19:50:19.008Z,29.875
2022-10-05T19:55:18.985Z,29.875
2022-10-05T20:00:19.029Z,29.873
2022-10-05T20:05:18.963Z,29.873
2022-10-05T20:10:19.106Z,29.873
2022-10-05T20:15:15.903Z,29.870
2022-10-05T20:20:15.877Z,29.870
2022-10-05T20:25:19.022Z,29.870
2022-10-05T20:30:18.987Z,29.872
2022-10-05T20:35:19.011Z,29.872
2022-10-05T20:40:19.037Z,29.872
2022-10-05T20:45:19.179Z,29.873
2022-10-05T20:50:19.000Z,29.873
2022-10-05T20:55:19.045Z,29.873
2022-10-05T21:00:19.061Z,29.870
2022-10-05T21:05:19.266Z,29.870
2022-10-05T21:10:16.028Z,29.870
2022-10-05T21:15:16.244Z,29.873
2022-10-05T21:20:19.179Z,29.873
2022-10-05T21:25:19.098Z,29.873
2022-10-05T21:30:19.046Z,29.882
2022-10-05T21:35:19.098Z,29.882
2022-10-05T21:40:19.173Z,29.882
2022-10-05T21:45:19.138Z,29.880
2022-10-05T21:50:19.226Z,29.880
2022-10-05T21:55:19.191Z,29.880
2022-10-05T22:00:16.111Z,29.888
2022-10-05T22:05:16.179Z,29.888
2022-10-05T22:10:19.172Z,29.888
2022-10-05T22:15:19.172Z,29.887
2022-10-05T22:20:19.193Z,29.887
2022-10-05T22:25:19.196Z,29.887
2022-10-05T22:30:19.130Z,29.891
2022-10-05T22:35:19.265Z,29.891
2022-10-05T22:40:19.198Z,29.891
2022-10-05T22:45:19.155Z,29.886
2022-10-05T22:50:19.235Z,29.886
2022-10-05T22:55:16.113Z,29.886
2022-10-05T23:00:16.180Z,29.887
2022-10-05T23:05:19.260Z,29.887
2022-10-05T23:10:19.186Z,29.887
2022-10-05T23:15:19.160Z,29.890
2022-10-05T23:20:19.270Z,29.890
2022-10-05T23:25:19.158Z,29.890
2022-10-05T23:30:19.344Z,29.888
2022-10-05T23:35:19.226Z,29.888
2022-10-05T23:40:19.323Z,29.888
2022-10-05T23:45:19.326Z,29.888
2022-10-05T23:50:16.237Z,29.888
2022-10-05T23:55:16.400Z,29.888
